createdAt,value
2023-04-07T00:00:17.069Z,13.30
2023-04-07T00:03:19.697Z,13.30
2023-04-07T00:06:22.006Z,13.40
2023-04-07T00:09:24.185Z,13.30
2023-04-07T00:12:26.639Z,13.30
2023-04-07T00:15:28.881Z,13.30
2023-04-07T00:18:31.218Z,13.30
2023-04-07T00:21:33.469Z,13.30
2023-04-07T00:24:35.910Z,13.30
2023-04-07T00:27:38.248Z,13.30
2023-04-07T00:30:40.406Z,13.30
2023-04-07T00:33:42.786Z,13.30
2023-04-07T00:36:46.746Z,13.30
2023-04-07T00:39:49.116Z,13.30
2023-04-07T00:42:51.394Z,13.30
2023-04-07T00:45:54.716Z,13.30
2023-04-07T00:48:57.130Z,13.30
2023-04-07T00:51:59.555Z,13.30
2023-04-07T00:55:01.842Z,13.30
2023-04-07T00:58:05.886Z,13.30
2023-04-07T01:01:15.860Z,13.20
2023-04-07T01:04:39.600Z,13.20
2023-04-07T01:07:53.676Z,13.20
2023-04-07T01:11:11.533Z,13.20
2023-04-07T01:14:15.526Z,13.20
2023-04-07T01:17:23.202Z,13.20
2023-04-07T01:20:28.481Z,13.20
2023-04-07T01:23:45.566Z,13.20
2023-04-07T01:26:49.544Z,13.20
2023-04-07T01:29:54.005Z,13.20
2023-04-07T01:32:58.353Z,13.20
2023-04-07T01:36:02.576Z,13.20
2023-04-07T01:39:06.800Z,13.20
2023-04-07T01:42:09.902Z,13.20
2023-04-07T01:45:12.673Z,13.20
2023-04-07T01:48:16.307Z,13.20
2023-04-07T01:51:20.063Z,13.20
2023-04-07T01:54:23.653Z,13.20
2023-04-07T01:57:28.086Z,13.20
2023-04-07T02:00:36.504Z,13.20
2023-04-07T02:04:04.672Z,13.10
2023-04-07T02:07:15.549Z,13.20
2023-04-07T02:10:24.476Z,13.10
2023-04-07T02:13:30.063Z,13.10
2023-04-07T02:16:34.102Z,13.10
2023-04-07T02:19:37.038Z,13.10
2023-04-07T02:22:40.096Z,13.10
2023-04-07T02:25:42.340Z,13.10
2023-04-07T02:28:44.539Z,13.10
2023-04-07T02:31:46.738Z,13.10
2023-04-07T02:34:48.944Z,13.10
2023-04-07T02:37:51.234Z,13.10
2023-04-07T02:40:53.550Z,13.10
2023-04-07T02:43:57.124Z,13.10
2023-04-07T02:46:59.604Z,13.10
2023-04-07T02:50:01.910Z,13.10
2023-04-07T02:53:04.184Z,13.10
2023-04-07T02:56:06.771Z,13.10
2023-04-07T02:59:09.079Z,13.10
2023-04-07T03:02:16.324Z,13.10
2023-04-07T03:05:18.657Z,13.10
2023-04-07T03:08:20.966Z,13.10
2023-04-07T03:11:23.271Z,13.10
2023-04-07T03:14:25.648Z,13.10
2023-04-07T03:17:27.869Z,13.00
2023-04-07T03:20:30.129Z,13.00
2023-04-07T03:23:37.048Z,13.00
2023-04-07T03:26:39.597Z,13.00
2023-04-07T03:29:51.470Z,13.00
2023-04-07T03:32:53.977Z,13.00
2023-04-07T03:35:56.639Z,13.00
2023-04-07T03:39:00.499Z,13.00
2023-04-07T03:42:04.104Z,13.00
2023-04-07T03:45:09.273Z,13.00
2023-04-07T03:48:15.345Z,13.00
2023-04-07T03:51:29.725Z,13.00
2023-04-07T03:54:35.642Z,13.00
2023-04-07T03:57:38.570Z,13.00
2023-04-07T04:00:41.406Z,13.00
2023-04-07T04:03:47.095Z,13.00
2023-04-07T04:07:00.610Z,13.00
2023-04-07T04:10:23.085Z,13.00
2023-04-07T04:13:28.096Z,13.00
2023-04-07T04:16:35.752Z,13.00
2023-04-07T04:19:43.050Z,12.90
2023-04-07T04:22:56.595Z,13.00
2023-04-07T04:26:00.431Z,12.90
2023-04-07T04:29:04.039Z,12.90
2023-04-07T04:32:06.631Z,12.90
2023-04-07T04:35:09.652Z,12.90
2023-04-07T04:38:20.632Z,12.90
2023-04-07T04:41:39.534Z,12.90
2023-04-07T04:44:42.664Z,12.90
2023-04-07T04:47:45.391Z,12.90
2023-04-07T04:50:48.053Z,12.90
2023-04-07T04:53:51.330Z,12.90
2023-04-07T04:56:54.506Z,12.90
2023-04-07T04:59:56.971Z,12.90
2023-04-07T05:02:59.645Z,12.80
2023-04-07T05:06:02.317Z,12.90
2023-04-07T05:09:05.250Z,12.80
2023-04-07T05:12:16.358Z,12.80
2023-04-07T05:15:23.629Z,12.80
2023-04-07T05:18:26.423Z,12.80
2023-04-07T05:21:28.971Z,12.80
2023-04-07T05:24:34.497Z,12.80
2023-04-07T05:27:36.833Z,12.80
2023-04-07T05:30:45.825Z,12.80
2023-04-07T05:33:48.393Z,12.80
2023-04-07T05:36:51.516Z,12.80
2023-04-07T05:39:53.821Z,12.80
2023-04-07T05:42:56.243Z,12.80
2023-04-07T05:45:59.829Z,12.80
2023-04-07T05:49:16.742Z,12.80
2023-04-07T05:52:24.004Z,12.80
2023-04-07T05:55:34.326Z,12.80
2023-04-07T05:58:37.387Z,12.80
2023-04-07T06:01:40.042Z,12.70
2023-04-07T06:04:43.748Z,12.70
2023-04-07T06:07:50.650Z,12.70
2023-04-07T06:10:52.825Z,12.70
2023-04-07T06:13:55.254Z,12.80
2023-04-07T06:16:57.574Z,12.70
2023-04-07T06:20:00.127Z,12.70
2023-04-07T06:23:02.401Z,12.70
2023-04-07T06:26:04.813Z,12.70
2023-04-07T06:29:07.485Z,12.70
2023-04-07T06:32:09.757Z,12.70
2023-04-07T06:35:12.228Z,12.70
2023-04-07T06:38:14.533Z,12.70
2023-04-07T06:41:19.486Z,12.70
2023-04-07T06:44:21.675Z,12.70
2023-04-07T06:47:24.432Z,12.70
2023-04-07T06:50:26.689Z,12.70
2023-04-07T06:53:29.060Z,12.70
2023-04-07T06:56:31.428Z,12.70
2023-04-07T06:59:33.693Z,12.70
2023-04-07T07:02:36.077Z,12.70
2023-04-07T07:05:38.355Z,12.70
2023-04-07T07:08:40.555Z,12.70
2023-04-07T07:11:42.804Z,12.70
2023-04-07T07:42:51.066Z,12.90
2023-04-07T07:45:53.633Z,12.90
2023-04-07T07:48:56.083Z,12.90
2023-04-07T07:52:00.002Z,12.90
2023-04-07T07:55:03.051Z,12.90
2023-04-07T07:58:05.426Z,12.80
2023-04-07T08:01:07.801Z,12.80
2023-04-07T08:04:10.472Z,12.90
2023-04-07T08:07:12.949Z,12.90
2023-04-07T08:10:15.779Z,12.80
2023-04-07T08:13:18.056Z,12.80
2023-04-07T08:16:22.286Z,12.80
2023-04-07T08:19:25.077Z,12.80
2023-04-07T08:22:27.498Z,12.90
2023-04-07T08:25:29.835Z,12.90
2023-04-07T08:28:32.051Z,12.90
2023-04-07T08:31:34.410Z,12.90
2023-04-07T08:34:36.880Z,12.90
2023-04-07T08:37:40.186Z,12.90
2023-04-07T08:40:43.072Z,12.90
2023-04-07T08:43:47.487Z,12.90
2023-04-07T08:46:51.804Z,12.90
2023-04-07T08:49:58.079Z,12.90
2023-04-07T08:53:07.502Z,13.00
2023-04-07T08:56:12.335Z,13.00
2023-04-07T08:59:18.798Z,13.00
2023-04-07T09:02:22.401Z,13.00
2023-04-07T09:05:25.653Z,13.00
2023-04-07T09:08:28.548Z,13.00
2023-04-07T09:11:31.460Z,13.10
2023-04-07T09:14:33.691Z,13.00
2023-04-07T09:17:36.275Z,13.10
2023-04-07T09:21:01.861Z,13.10
2023-04-07T09:24:28.111Z,13.10
2023-04-07T09:27:30.429Z,13.10
2023-04-07T09:30:33.917Z,13.10
2023-04-07T09:33:37.091Z,13.20
2023-04-07T09:36:42.650Z,13.20
2023-04-07T09:39:52.845Z,13.20
2023-04-07T09:42:55.056Z,13.20
2023-04-07T09:46:34.073Z,13.20
2023-04-07T09:49:51.283Z,13.20
2023-04-07T09:52:54.030Z,13.20
2023-04-07T09:55:56.591Z,13.20
2023-04-07T09:58:59.640Z,13.20
2023-04-07T10:02:02.525Z,13.30
2023-04-07T10:05:05.260Z,13.30
2023-04-07T10:08:07.518Z,13.30
2023-04-07T10:11:10.866Z,13.30
2023-04-07T10:14:13.949Z,13.30
2023-04-07T10:17:19.570Z,13.40
2023-04-07T10:20:22.921Z,13.40
2023-04-07T10:23:56.403Z,13.30
2023-04-07T10:27:04.673Z,13.40
2023-04-07T10:30:14.502Z,13.40
2023-04-07T10:33:18.723Z,13.40
2023-04-07T10:36:22.293Z,13.40
2023-04-07T10:39:25.122Z,13.40
2023-04-07T10:42:39.690Z,13.40
2023-04-07T10:45:52.544Z,13.40
2023-04-07T10:49:10.823Z,13.40
2023-04-07T10:52:13.107Z,13.40
2023-04-07T10:55:43.033Z,13.50
2023-04-07T10:58:45.489Z,13.50
2023-04-07T11:01:47.858Z,13.50
2023-04-07T11:04:50.834Z,13.50
2023-04-07T11:07:55.748Z,13.50
2023-04-07T11:10:58.034Z,13.50
2023-04-07T11:14:00.275Z,13.50
2023-04-07T11:17:02.700Z,13.50
2023-04-07T11:20:05.374Z,13.50
2023-04-07T11:23:07.759Z,13.50
2023-04-07T11:26:11.655Z,13.50
2023-04-07T11:29:14.007Z,13.50
2023-04-07T11:32:16.778Z,13.60
2023-04-07T11:35:19.224Z,13.60
2023-04-07T11:38:22.784Z,13.60
2023-04-07T11:41:27.809Z,13.60
2023-04-07T11:44:30.055Z,13.60
2023-04-07T11:47:51.330Z,13.60
2023-04-07T11:50:53.640Z,13.60
2023-04-07T11:53:57.295Z,13.60
2023-04-07T11:56:59.798Z,13.60
2023-04-07T12:00:12.868Z,13.60
2023-04-07T12:03:16.555Z,13.60
2023-04-07T12:06:33.567Z,13.60
2023-04-07T12:09:36.527Z,13.60
2023-04-07T12:12:39.851Z,13.70
2023-04-07T12:15:42.639Z,13.70
2023-04-07T12:18:45.253Z,13.70
2023-04-07T12:21:47.893Z,13.70
2023-04-07T12:24:50.162Z,13.70
2023-04-07T12:27:52.471Z,13.70
2023-04-07T12:30:55.725Z,13.70
2023-04-07T12:33:58.899Z,13.70
2023-04-07T12:37:01.456Z,13.70
2023-04-07T12:40:03.964Z,13.70
2023-04-07T12:43:06.786Z,13.70
2023-04-07T12:46:09.071Z,13.70
2023-04-07T12:49:11.814Z,13.70
2023-04-07T12:52:14.048Z,13.70
2023-04-07T12:55:16.218Z,13.70
2023-04-07T12:58:19.391Z,13.70
2023-04-07T13:01:22.020Z,13.80
2023-04-07T13:04:25.883Z,13.70
2023-04-07T13:07:28.433Z,13.80
2023-04-07T13:10:30.716Z,13.80
2023-04-07T13:13:33.225Z,13.80
2023-04-07T13:16:35.549Z,13.80
2023-04-07T13:19:38.482Z,13.80
2023-04-07T13:22:49.170Z,13.80
2023-04-07T13:25:54.155Z,13.80
2023-04-07T13:28:56.388Z,13.80
2023-04-07T13:32:08.912Z,13.80
2023-04-07T13:35:11.224Z,13.80
2023-04-07T13:38:13.643Z,13.80
2023-04-07T13:41:16.011Z,13.80
2023-04-07T13:44:18.247Z,13.80
2023-04-07T13:47:20.918Z,13.80
2023-04-07T13:50:23.228Z,13.80
2023-04-07T13:53:25.394Z,13.80
2023-04-07T13:56:27.536Z,13.80
2023-04-07T13:59:29.703Z,13.80
2023-04-07T14:02:33.056Z,13.80
2023-04-07T14:05:36.211Z,13.80
2023-04-07T14:08:38.548Z,13.80
2023-04-07T14:11:40.848Z,13.80
2023-04-07T14:14:43.217Z,13.80
2023-04-07T14:17:45.632Z,13.80
2023-04-07T14:20:47.977Z,13.80
2023-04-07T14:23:51.035Z,13.80
2023-04-07T14:26:54.921Z,13.80
2023-04-07T14:29:58.148Z,13.80
2023-04-07T14:33:01.467Z,13.90
2023-04-07T14:36:05.826Z,13.80
2023-04-07T14:39:09.296Z,13.80
2023-04-07T14:42:11.579Z,13.90
2023-04-07T14:45:14.060Z,13.90
2023-04-07T14:48:17.358Z,13.90
2023-04-07T14:51:19.772Z,13.90
2023-04-07T14:54:22.057Z,13.90
2023-04-07T14:57:24.323Z,13.90
2023-04-07T15:00:27.547Z,13.90
2023-04-07T15:03:29.834Z,13.90
2023-04-07T15:06:32.511Z,13.90
2023-04-07T15:09:34.811Z,13.90
2023-04-07T15:12:37.034Z,13.90
2023-04-07T15:15:39.333Z,13.90
2023-04-07T15:18:43.525Z,13.90
2023-04-07T15:21:45.852Z,13.90
2023-04-07T15:24:48.106Z,13.90
2023-04-07T15:27:50.378Z,14.00
2023-04-07T15:30:52.769Z,14.00
2023-04-07T15:33:54.936Z,14.00
2023-04-07T15:36:57.147Z,14.00
2023-04-07T15:39:59.458Z,14.00
2023-04-07T15:43:01.692Z,14.00
2023-04-07T15:46:03.960Z,14.00
2023-04-07T15:49:06.227Z,14.00
2023-04-07T15:52:08.607Z,14.10
2023-04-07T15:55:11.020Z,14.10
2023-04-07T15:58:13.289Z,14.10
2023-04-07T16:01:15.728Z,14.10
2023-04-07T16:04:19.517Z,14.10
2023-04-07T16:07:21.918Z,14.10
2023-04-07T16:10:24.678Z,14.10
2023-04-07T16:13:27.058Z,14.10
2023-04-07T16:16:32.462Z,14.10
2023-04-07T16:19:34.812Z,14.10
2023-04-07T16:22:37.178Z,14.10
2023-04-07T16:25:39.500Z,14.10
2023-04-07T16:28:42.244Z,14.10
2023-04-07T16:31:44.688Z,14.10
2023-04-07T16:34:47.000Z,14.10
2023-04-07T16:37:50.366Z,14.20
2023-04-07T16:41:03.411Z,14.20
2023-04-07T16:44:06.678Z,14.20
2023-04-07T16:47:09.077Z,14.20
2023-04-07T16:50:12.884Z,14.20
2023-04-07T16:53:15.095Z,14.20
2023-04-07T16:56:22.230Z,14.20
2023-04-07T16:59:24.460Z,14.20
2023-04-07T17:02:28.060Z,14.20
2023-04-07T17:05:30.572Z,14.20
2023-04-07T17:08:36.669Z,14.20
2023-04-07T17:11:41.011Z,14.20
2023-04-07T17:14:43.218Z,14.20
2023-04-07T17:17:45.440Z,14.20
2023-04-07T17:20:47.764Z,14.20
2023-04-07T17:23:50.354Z,14.20
2023-04-07T17:26:52.782Z,14.20
2023-04-07T17:29:55.058Z,14.20
2023-04-07T17:32:57.366Z,14.20
2023-04-07T17:36:03.280Z,14.20
2023-04-07T17:39:05.798Z,14.20
2023-04-07T17:42:11.159Z,14.20
2023-04-07T17:45:14.278Z,14.20
2023-04-07T17:48:17.105Z,14.20
2023-04-07T17:51:19.601Z,14.20
2023-04-07T17:54:22.066Z,14.20
2023-04-07T17:57:24.537Z,14.20
2023-04-07T18:00:27.711Z,14.20
2023-04-07T18:03:30.305Z,14.20
2023-04-07T18:06:32.714Z,14.20
2023-04-07T18:09:35.572Z,14.20
2023-04-07T18:12:38.311Z,14.20
2023-04-07T18:15:40.666Z,14.20
2023-04-07T18:18:43.544Z,14.20
2023-04-07T18:21:46.187Z,14.20
2023-04-07T18:24:48.930Z,14.20
2023-04-07T18:27:51.266Z,14.20
2023-04-07T18:31:01.466Z,14.20
2023-04-07T18:34:03.641Z,14.20
2023-04-07T18:37:06.286Z,14.20
2023-04-07T18:40:09.042Z,14.20
2023-04-07T18:43:11.427Z,14.20
2023-04-07T18:46:14.062Z,14.20
2023-04-07T18:49:17.233Z,14.20
2023-04-07T18:52:19.417Z,14.10
2023-04-07T18:55:21.670Z,14.20
2023-04-07T18:58:23.942Z,14.10
2023-04-07T19:01:27.460Z,14.20
2023-04-07T19:04:29.749Z,14.20
2023-04-07T19:07:32.018Z,14.20
2023-04-07T19:10:35.184Z,14.20
2023-04-07T19:13:37.557Z,14.20
2023-04-07T19:16:40.272Z,14.20
2023-04-07T19:19:42.568Z,14.20
2023-04-07T19:22:44.839Z,14.20
2023-04-07T19:25:47.163Z,14.20
2023-04-07T19:28:49.933Z,14.20
2023-04-07T19:31:53.236Z,14.20
2023-04-07T19:34:55.535Z,14.20
2023-04-07T19:37:57.747Z,14.20
2023-04-07T19:41:00.122Z,14.20
2023-04-07T19:44:02.663Z,14.20
2023-04-07T19:47:06.487Z,14.20
2023-04-07T19:50:11.440Z,14.20
2023-04-07T19:53:16.920Z,14.20
2023-04-07T19:56:19.221Z,14.20
2023-04-07T19:59:21.467Z,14.20
2023-04-07T20:02:24.001Z,14.10
2023-04-07T20:05:26.400Z,14.20
2023-04-07T20:08:28.593Z,14.10
2023-04-07T20:11:30.916Z,14.10
2023-04-07T20:14:33.158Z,14.10
2023-04-07T20:17:37.174Z,14.20
2023-04-07T20:20:39.519Z,14.10
2023-04-07T20:23:41.835Z,14.10
2023-04-07T20:26:44.137Z,14.10
2023-04-07T20:29:46.369Z,14.20
2023-04-07T20:32:48.742Z,14.10
2023-04-07T20:35:51.150Z,14.10
2023-04-07T20:38:55.016Z,14.10
2023-04-07T20:41:57.470Z,14.10
2023-04-07T20:45:03.977Z,14.10
2023-04-07T20:48:07.017Z,14.10
2023-04-07T20:51:09.347Z,14.10
2023-04-07T20:54:11.551Z,14.10
2023-04-07T20:57:14.049Z,14.10
2023-04-07T21:00:18.724Z,14.10
2023-04-07T21:03:21.420Z,14.10
2023-04-07T21:06:23.812Z,14.10
2023-04-07T21:09:26.097Z,14.10
2023-04-07T21:12:28.334Z,14.10
2023-04-07T21:15:30.935Z,14.10
2023-04-07T21:18:33.968Z,14.10
2023-04-07T21:21:36.235Z,14.10
2023-04-07T21:24:39.391Z,14.10
2023-04-07T21:27:41.587Z,14.10
2023-04-07T21:30:43.940Z,14.00
2023-04-07T21:33:47.440Z,14.00
2023-04-07T21:36:49.685Z,14.00
2023-04-07T21:39:54.945Z,14.10
2023-04-07T21:42:57.770Z,14.00
2023-04-07T21:46:00.152Z,14.00
2023-04-07T21:49:02.701Z,14.00
2023-04-07T21:52:06.155Z,14.00
2023-04-07T21:55:10.948Z,14.00
2023-04-07T21:58:13.167Z,14.00
2023-04-07T22:01:15.628Z,14.00
2023-04-07T22:04:18.079Z,14.00
2023-04-07T22:07:20.615Z,14.00
2023-04-07T22:10:22.925Z,14.00
2023-04-07T22:13:25.390Z,14.00
2023-04-07T22:16:27.786Z,14.00
2023-04-07T22:19:30.170Z,13.90
2023-04-07T22:22:32.385Z,14.00
2023-04-07T22:25:34.589Z,13.90
2023-04-07T22:28:36.953Z,13.90
2023-04-07T22:31:39.390Z,13.90
2023-04-07T22:34:41.657Z,13.90
2023-04-07T22:37:44.025Z,13.90
2023-04-07T22:40:46.278Z,13.90
2023-04-07T22:43:48.517Z,14.00
2023-04-07T22:46:50.767Z,13.90
2023-04-07T22:49:53.120Z,13.90
2023-04-07T22:52:55.530Z,13.90
2023-04-07T22:55:57.906Z,13.90
2023-04-07T22:59:05.801Z,13.90
2023-04-07T23:02:08.297Z,13.90
2023-04-07T23:05:10.847Z,13.90
2023-04-07T23:08:13.211Z,13.90
2023-04-07T23:11:18.156Z,13.90
2023-04-07T23:14:20.516Z,13.90
2023-04-07T23:17:22.882Z,13.90
2023-04-07T23:20:25.167Z,13.90
2023-04-07T23:23:27.498Z,13.80
2023-04-07T23:26:29.785Z,13.80
2023-04-07T23:29:32.725Z,13.90
2023-04-07T23:32:35.263Z,13.80
2023-04-07T23:35:37.532Z,13.90
2023-04-07T23:38:40.943Z,13.80
2023-04-07T23:41:43.275Z,13.80
2023-04-07T23:44:45.546Z,13.80
2023-04-07T23:47:47.930Z,13.80
2023-04-07T23:50:51.535Z,13.80
2023-04-07T23:53:53.912Z,13.80
2023-04-07T23:56:57.242Z,13.80
2023-04-07T23:59:59.576Z,13.80
